sensor_id;sensor_type;location;lat;lon;timestamp;pressure;altitude;pressure_sealevel;temperature;humidity
75699;BME280;64313;51.018;13.742;2022-11-04T00:01:50;98569.13;;;10.96;75.56
75699;BME280;64313;51.018;13.742;2022-11-04T00:04:17;98571.22;;;10.94;75.50
75699;BME280;64313;51.018;13.742;2022-11-04T00:06:43;98573.28;;;10.92;75.76
75699;BME280;64313;51.018;13.742;2022-11-04T00:09:11;98563.88;;;10.90;75.51
75699;BME280;64313;51.018;13.742;2022-11-04T00:11:37;98563.06;;;10.89;75.54
75699;BME280;64313;51.018;13.742;2022-11-04T00:14:21;98566.22;;;10.86;75.77
75699;BME280;64313;51.018;13.742;2022-11-04T00:16:47;98557.59;;;10.84;75.38
75699;BME280;64313;51.018;13.742;2022-11-04T00:19:31;98565.03;;;10.82;75.92
75699;BME280;64313;51.018;13.742;2022-11-04T00:22:15;98569.78;;;10.80;75.79
75699;BME280;64313;51.018;13.742;2022-11-04T00:24:59;98565.72;;;10.77;75.55
75699;BME280;64313;51.018;13.742;2022-11-04T00:27:44;98552.56;;;10.76;75.72
75699;BME280;64313;51.018;13.742;2022-11-04T00:30:28;98566.16;;;10.74;76.13
75699;BME280;64313;51.018;13.742;2022-11-04T00:32:53;98562.91;;;10.72;76.15
75699;BME280;64313;51.018;13.742;2022-11-04T00:35:37;98553.47;;;10.70;76.01
75699;BME280;64313;51.018;13.742;2022-11-04T00:38:03;98552.91;;;10.68;76.38
75699;BME280;64313;51.018;13.742;2022-11-04T00:40:28;98544.06;;;10.67;76.00
75699;BME280;64313;51.018;13.742;2022-11-04T00:42:53;98553.16;;;10.66;76.27
75699;BME280;64313;51.018;13.742;2022-11-04T00:45:19;98547.19;;;10.64;77.02
75699;BME280;64313;51.018;13.742;2022-11-04T00:47:44;98550.09;;;10.63;76.67
75699;BME280;64313;51.018;13.742;2022-11-04T00:50:09;98548.22;;;10.63;76.68
75699;BME280;64313;51.018;13.742;2022-11-04T00:52:35;98554.41;;;10.64;76.20
75699;BME280;64313;51.018;13.742;2022-11-04T00:55:00;98554.84;;;10.60;76.56
75699;BME280;64313;51.018;13.742;2022-11-04T00:57:26;98558.09;;;10.63;76.59
75699;BME280;64313;51.018;13.742;2022-11-04T00:59:51;98552.16;;;10.60;76.42
75699;BME280;64313;51.018;13.742;2022-11-04T01:02:16;98544.16;;;10.60;76.32
75699;BME280;64313;51.018;13.742;2022-11-04T01:04:42;98544.16;;;10.60;76.12
75699;BME280;64313;51.018;13.742;2022-11-04T01:07:07;98542.53;;;10.59;76.90
75699;BME280;64313;51.018;13.742;2022-11-04T01:09:33;98548.09;;;10.58;76.95
75699;BME280;64313;51.018;13.742;2022-11-04T01:11:58;98545.44;;;10.58;77.09
75699;BME280;64313;51.018;13.742;2022-11-04T01:14:23;98540.09;;;10.58;77.23
75699;BME280;64313;51.018;13.742;2022-11-04T01:16:49;98536.38;;;10.59;77.04
75699;BME280;64313;51.018;13.742;2022-11-04T01:19:15;98537.66;;;10.56;76.89
75699;BME280;64313;51.018;13.742;2022-11-04T01:21:40;98538.47;;;10.57;77.26
75699;BME280;64313;51.018;13.742;2022-11-04T01:24:06;98546.25;;;10.58;76.95
75699;BME280;64313;51.018;13.742;2022-11-04T01:26:31;98541.72;;;10.59;77.39
75699;BME280;64313;51.018;13.742;2022-11-04T01:28:57;98539.88;;;10.59;77.35
75699;BME280;64313;51.018;13.742;2022-11-04T01:31:27;98549.50;;;10.60;77.15
75699;BME280;64313;51.018;13.742;2022-11-04T01:33:53;98536.72;;;10.63;77.93
75699;BME280;64313;51.018;13.742;2022-11-04T01:36:20;98535.72;;;10.64;77.41
75699;BME280;64313;51.018;13.742;2022-11-04T01:38:46;98526.63;;;10.65;77.85
75699;BME280;64313;51.018;13.742;2022-11-04T01:41:26;98521.88;;;10.67;77.45
75699;BME280;64313;51.018;13.742;2022-11-04T01:44:01;98520.81;;;10.68;77.52
75699;BME280;64313;51.018;13.742;2022-11-04T01:46:34;98526.75;;;10.70;77.61
75699;BME280;64313;51.018;13.742;2022-11-04T01:49:48;98523.28;;;10.69;77.56
75699;BME280;64313;51.018;13.742;2022-11-04T01:52:01;98517.47;;;10.72;77.42
75699;BME280;64313;51.018;13.742;2022-11-04T01:54:29;98515.38;;;10.74;77.44
75699;BME280;64313;51.018;13.742;2022-11-04T01:56:58;98506.56;;;10.74;77.39
75699;BME280;64313;51.018;13.742;2022-11-04T01:59:31;98498.28;;;10.75;77.69
75699;BME280;64313;51.018;13.742;2022-11-04T02:01:57;98499.09;;;10.76;77.72
75699;BME280;64313;51.018;13.742;2022-11-04T02:04:22;98499.69;;;10.78;77.54
75699;BME280;64313;51.018;13.742;2022-11-04T02:06:56;98491.66;;;10.78;77.40
75699;BME280;64313;51.018;13.742;2022-11-04T02:09:23;98493.31;;;10.79;77.89
75699;BME280;64313;51.018;13.742;2022-11-04T02:11:49;98493.31;;;10.79;77.84
75699;BME280;64313;51.018;13.742;2022-11-04T02:14:33;98488.78;;;10.79;77.81
75699;BME280;64313;51.018;13.742;2022-11-04T02:17:20;98494.13;;;10.79;77.90
75699;BME280;64313;51.018;13.742;2022-11-04T02:22:47;98506.44;;;10.80;77.98
75699;BME280;64313;51.018;13.742;2022-11-04T02:25:44;98498.19;;;10.82;78.03
75699;BME280;64313;51.018;13.742;2022-11-04T02:34:19;98530.19;;;10.89;77.98
75699;BME280;64313;51.018;13.742;2022-11-04T02:36:54;98536.34;;;10.89;78.20
75699;BME280;64313;51.018;13.742;2022-11-04T02:39:48;98523.78;;;10.90;78.00
75699;BME280;64313;51.018;13.742;2022-11-04T02:45:11;98504.59;;;10.93;78.08
75699;BME280;64313;51.018;13.742;2022-11-04T02:47:42;98499.63;;;10.96;78.18
75699;BME280;64313;51.018;13.742;2022-11-04T02:50:19;98502.03;;;10.98;77.98
75699;BME280;64313;51.018;13.742;2022-11-04T02:53:02;98502.84;;;10.98;77.88
75699;BME280;64313;51.018;13.742;2022-11-04T02:55:38;98500.75;;;11.00;78.05
75699;BME280;64313;51.018;13.742;2022-11-04T02:58:09;98497.06;;;11.01;77.78
75699;BME280;64313;51.018;13.742;2022-11-04T03:00:39;98509.59;;;11.01;78.31
75699;BME280;64313;51.018;13.742;2022-11-04T03:03:10;98577.84;;;11.03;77.75
75699;BME280;64313;51.018;13.742;2022-11-04T03:05:38;98604.56;;;11.03;78.06
75699;BME280;64313;51.018;13.742;2022-11-04T03:08:29;98578.91;;;11.02;77.70
75699;BME280;64313;51.018;13.742;2022-11-04T03:11:11;98620.41;;;11.05;77.91
75699;BME280;64313;51.018;13.742;2022-11-04T03:13:44;98622.50;;;11.03;78.73
75699;BME280;64313;51.018;13.742;2022-11-04T03:16:25;98617.13;;;11.03;78.38
75699;BME280;64313;51.018;13.742;2022-11-04T03:19:10;98613.88;;;11.01;79.29
75699;BME280;64313;51.018;13.742;2022-11-04T03:21:42;98632.59;;;11.01;78.94
75699;BME280;64313;51.018;13.742;2022-11-04T03:24:09;98608.53;;;11.01;78.27
75699;BME280;64313;51.018;13.742;2022-11-04T03:26:43;98614.72;;;11.01;78.20
75699;BME280;64313;51.018;13.742;2022-11-04T03:29:20;98626.81;;;11.04;79.00
75699;BME280;64313;51.018;13.742;2022-11-04T03:32:12;98612.72;;;10.97;80.05
75699;BME280;64313;51.018;13.742;2022-11-04T03:34:44;98594.81;;;10.97;79.54
75699;BME280;64313;51.018;13.742;2022-11-04T03:37:09;98588.41;;;10.98;79.24
75699;BME280;64313;51.018;13.742;2022-11-04T03:39:35;98599.09;;;10.98;78.96
75699;BME280;64313;51.018;13.742;2022-11-04T03:42:03;98601.78;;;10.98;78.63
75699;BME280;64313;51.018;13.742;2022-11-04T03:44:49;98595.41;;;10.99;79.41
75699;BME280;64313;51.018;13.742;2022-11-04T03:47:16;98597.28;;;10.99;79.23
75699;BME280;64313;51.018;13.742;2022-11-04T03:49:44;98587.38;;;10.99;79.35
75699;BME280;64313;51.018;13.742;2022-11-04T03:52:10;98595.41;;;10.99;78.88
75699;BME280;64313;51.018;13.742;2022-11-04T03:54:36;98607.72;;;11.00;79.51
75699;BME280;64313;51.018;13.742;2022-11-04T04:02:41;98610.03;;;10.97;79.86
75699;BME280;64313;51.018;13.742;2022-11-04T04:05:23;98599.56;;;10.95;79.63
75699;BME280;64313;51.018;13.742;2022-11-04T04:08:04;98594.22;;;10.95;79.78
75699;BME280;64313;51.018;13.742;2022-11-04T04:10:39;98609.44;;;10.95;79.79
75699;BME280;64313;51.018;13.742;2022-11-04T04:13:15;98607.00;;;10.93;79.44
75699;BME280;64313;51.018;13.742;2022-11-04T04:15:54;98600.03;;;10.92;79.83
75699;BME280;64313;51.018;13.742;2022-11-04T04:18:51;98607.47;;;10.90;79.27
75699;BME280;64313;51.018;13.742;2022-11-04T04:21:21;98606.88;;;10.88;79.73
75699;BME280;64313;51.018;13.742;2022-11-04T04:23:49;98621.28;;;10.87;79.88
75699;BME280;64313;51.018;13.742;2022-11-04T04:26:36;98617.00;;;10.86;79.82
75699;BME280;64313;51.018;13.742;2022-11-04T04:29:24;98617.22;;;10.85;79.82
75699;BME280;64313;51.018;13.742;2022-11-04T04:31:52;98612.94;;;10.83;80.14
75699;BME280;64313;51.018;13.742;2022-11-04T04:34:27;98620.09;;;10.83;79.84
75699;BME280;64313;51.018;13.742;2022-11-04T04:36:57;98621.16;;;10.82;80.10
75699;BME280;64313;51.018;13.742;2022-11-04T04:39:28;98631.84;;;10.82;79.82
75699;BME280;64313;51.018;13.742;2022-11-04T04:42:15;98618.28;;;10.83;79.91
75699;BME280;64313;51.018;13.742;2022-11-04T04:45:01;98620.09;;;10.83;80.00
75699;BME280;64313;51.018;13.742;2022-11-04T04:47:41;98618.28;;;10.83;79.80
75699;BME280;64313;51.018;13.742;2022-11-04T04:50:08;98624.44;;;10.84;79.66
75699;BME280;64313;51.018;13.742;2022-11-04T04:52:39;98630.38;;;10.86;79.45
75699;BME280;64313;51.018;13.742;2022-11-04T04:55:05;98625.81;;;10.87;79.35
75699;BME280;64313;51.018;13.742;2022-11-04T04:57:31;98631.78;;;10.89;79.40
75699;BME280;64313;51.018;13.742;2022-11-04T04:59:56;98635.00;;;10.91;80.01
75699;BME280;64313;51.018;13.742;2022-11-04T05:02:22;98621.63;;;10.91;80.00
75699;BME280;64313;51.018;13.742;2022-11-04T05:04:47;98618.53;;;10.94;80.13
75699;BME280;64313;51.018;13.742;2022-11-04T05:07:13;98625.50;;;10.95;80.19
75699;BME280;64313;51.018;13.742;2022-11-04T05:09:38;98625.50;;;10.95;79.49
75699;BME280;64313;51.018;13.742;2022-11-04T05:12:04;98626.09;;;10.97;79.89
75699;BME280;64313;51.018;13.742;2022-11-04T05:14:29;98622.59;;;10.96;80.49
75699;BME280;64313;51.018;13.742;2022-11-04T05:16:55;98626.91;;;10.97;80.44
75699;BME280;64313;51.018;13.742;2022-11-04T05:19:20;98615.38;;;10.97;80.11
75699;BME280;64313;51.018;13.742;2022-11-04T05:21:46;98628.75;;;10.97;81.08
75699;BME280;64313;51.018;13.742;2022-11-04T05:24:11;98629.56;;;10.97;80.87
75699;BME280;64313;51.018;13.742;2022-11-04T05:26:37;98636.53;;;10.98;80.07
75699;BME280;64313;51.018;13.742;2022-11-04T05:29:02;98642.72;;;10.99;80.73
75699;BME280;64313;51.018;13.742;2022-11-04T05:31:27;98645.63;;;10.97;81.40
75699;BME280;64313;51.018;13.742;2022-11-04T05:33:55;98638.66;;;10.96;80.55
75699;BME280;64313;51.018;13.742;2022-11-04T05:36:21;98630.38;;;10.98;81.85
75699;BME280;64313;51.018;13.742;2022-11-04T05:38:51;98635.13;;;10.96;81.76
75699;BME280;64313;51.018;13.742;2022-11-04T05:41:17;98637.00;;;10.95;81.86
75699;BME280;64313;51.018;13.742;2022-11-04T05:43:58;98628.38;;;10.93;82.03
75699;BME280;64313;51.018;13.742;2022-11-04T05:46:24;98621.41;;;10.92;82.47
75699;BME280;64313;51.018;13.742;2022-11-04T05:48:50;98624.31;;;10.91;82.31
75699;BME280;64313;51.018;13.742;2022-11-04T05:51:17;98628.03;;;10.90;82.68
75699;BME280;64313;51.018;13.742;2022-11-04T05:53:43;98624.56;;;10.89;82.30
75699;BME280;64313;51.018;13.742;2022-11-04T05:56:09;98622.91;;;10.88;81.94
75699;BME280;64313;51.018;13.742;2022-11-04T05:58:35;98621.06;;;10.89;81.96
75699;BME280;64313;51.018;13.742;2022-11-04T06:01:11;98632.56;;;10.89;82.61
75699;BME280;64313;51.018;13.742;2022-11-04T06:03:36;98643.50;;;10.88;82.37
75699;BME280;64313;51.018;13.742;2022-11-04T06:06:02;98628.72;;;10.85;82.34
75699;BME280;64313;51.018;13.742;2022-11-04T06:08:27;98655.22;;;10.87;81.68
75699;BME280;64313;51.018;13.742;2022-11-04T06:10:54;98663.25;;;10.87;82.13
75699;BME280;64313;51.018;13.742;2022-11-04T06:13:19;98657.31;;;10.85;81.96
75699;BME280;64313;51.018;13.742;2022-11-04T06:15:45;98650.69;;;10.87;81.77
75699;BME280;64313;51.018;13.742;2022-11-04T06:18:10;98643.72;;;10.86;82.35
75699;BME280;64313;51.018;13.742;2022-11-04T06:21:58;98640.47;;;10.84;82.25
75699;BME280;64313;51.018;13.742;2022-11-04T06:24:25;98644.75;;;10.85;81.73
75699;BME280;64313;51.018;13.742;2022-11-04T06:28:32;98649.06;;;10.86;81.63
75699;BME280;64313;51.018;13.742;2022-11-04T06:31:00;98652.78;;;10.85;82.13
75699;BME280;64313;51.018;13.742;2022-11-04T06:33:28;98656.25;;;10.86;80.98
75699;BME280;64313;51.018;13.742;2022-11-04T06:35:57;98650.09;;;10.85;81.70
75699;BME280;64313;51.018;13.742;2022-11-04T06:38:23;98657.91;;;10.87;81.79
75699;BME280;64313;51.018;13.742;2022-11-04T06:40:49;98649.06;;;10.86;82.18
75699;BME280;64313;51.018;13.742;2022-11-04T06:43:14;98643.72;;;10.86;81.50
75699;BME280;64313;51.018;13.742;2022-11-04T06:45:39;98635.13;;;10.84;81.75
75699;BME280;64313;51.018;13.742;2022-11-04T06:48:05;98637.78;;;10.84;81.92
75699;BME280;64313;51.018;13.742;2022-11-04T06:50:31;98630.59;;;10.85;82.29
75699;BME280;64313;51.018;13.742;2022-11-04T06:52:56;98622.34;;;10.86;81.73
75699;BME280;64313;51.018;13.742;2022-11-04T06:55:22;98619.44;;;10.88;81.67
75699;BME280;64313;51.018;13.742;2022-11-04T06:57:47;98618.41;;;10.89;82.09
75699;BME280;64313;51.018;13.742;2022-11-04T07:00:13;98624.56;;;10.89;81.72
75699;BME280;64313;51.018;13.742;2022-11-04T07:02:39;98626.19;;;10.90;81.89
75699;BME280;64313;51.018;13.742;2022-11-04T07:05:04;98626.78;;;10.92;82.04
75699;BME280;64313;51.018;13.742;2022-11-04T07:07:30;98622.81;;;10.95;81.75
75699;BME280;64313;51.018;13.742;2022-11-04T07:09:56;98628.75;;;10.97;82.48
75699;BME280;64313;51.018;13.742;2022-11-04T07:12:21;98621.75;;;10.96;81.52
75699;BME280;64313;51.018;13.742;2022-11-04T07:14:49;98621.34;;;10.99;82.15
75699;BME280;64313;51.018;13.742;2022-11-04T07:17:15;98624.81;;;10.99;82.72
75699;BME280;64313;51.018;13.742;2022-11-04T07:19:40;98620.88;;;11.02;81.64
75699;BME280;64313;51.018;13.742;2022-11-04T07:22:05;98631.09;;;11.05;81.54
75699;BME280;64313;51.018;13.742;2022-11-04T07:24:32;98634.97;;;11.09;81.63
75699;BME280;64313;51.018;13.742;2022-11-04T07:26:58;98629.94;;;11.13;81.92
75699;BME280;64313;51.018;13.742;2022-11-04T07:29:23;98637.75;;;11.14;82.57
75699;BME280;64313;51.018;13.742;2022-11-04T07:31:49;98633.81;;;11.17;82.46
75699;BME280;64313;51.018;13.742;2022-11-04T07:34:15;98635.22;;;11.19;82.00
75699;BME280;64313;51.018;13.742;2022-11-04T07:36:40;98633.94;;;11.22;81.72
75699;BME280;64313;51.018;13.742;2022-11-04T07:39:06;98645.22;;;11.24;81.95
75699;BME280;64313;51.018;13.742;2022-11-04T07:41:31;98649.06;;;11.28;81.90
75699;BME280;64313;51.018;13.742;2022-11-04T07:43:56;98658.72;;;11.29;81.74
75699;BME280;64313;51.018;13.742;2022-11-04T07:46:23;98668.16;;;11.32;81.81
75699;BME280;64313;51.018;13.742;2022-11-04T07:48:48;98668.72;;;11.34;81.38
75699;BME280;64313;51.018;13.742;2022-11-04T07:51:15;98657.78;;;11.35;81.66
75699;BME280;64313;51.018;13.742;2022-11-04T07:53:41;98671.75;;;11.37;82.36
75699;BME280;64313;51.018;13.742;2022-11-04T07:56:09;98675.47;;;11.36;82.58
75699;BME280;64313;51.018;13.742;2022-11-04T07:58:38;98684.88;;;11.39;82.25
75699;BME280;64313;51.018;13.742;2022-11-04T08:01:06;98692.09;;;11.38;82.36
75699;BME280;64313;51.018;13.742;2022-11-04T08:03:33;98695.59;;;11.39;81.88
75699;BME280;64313;51.018;13.742;2022-11-04T08:06:01;98694.78;;;11.38;81.82
75699;BME280;64313;51.018;13.742;2022-11-04T08:08:27;98683.28;;;11.38;81.79
75699;BME280;64313;51.018;13.742;2022-11-04T08:10:54;98685.72;;;11.39;81.64
75699;BME280;64313;51.018;13.742;2022-11-04T08:13:21;98685.72;;;11.39;81.49
75699;BME280;64313;51.018;13.742;2022-11-04T08:15:47;98675.25;;;11.38;82.20
75699;BME280;64313;51.018;13.742;2022-11-04T08:18:13;98676.06;;;11.38;82.37
75699;BME280;64313;51.018;13.742;2022-11-04T08:20:38;98674.44;;;11.37;82.94
75699;BME280;64313;51.018;13.742;2022-11-04T08:23:03;98687.00;;;11.37;82.90
75699;BME280;64313;51.018;13.742;2022-11-04T08:25:29;98681.66;;;11.37;83.41
75699;BME280;64313;51.018;13.742;2022-11-04T08:27:54;98676.06;;;11.38;82.50
75699;BME280;64313;51.018;13.742;2022-11-04T08:30:20;98670.69;;;11.38;83.20
75699;BME280;64313;51.018;13.742;2022-11-04T08:32:45;98660.47;;;11.35;84.49
75699;BME280;64313;51.018;13.742;2022-11-04T08:35:11;98656.19;;;11.34;83.47
75699;BME280;64313;51.018;13.742;2022-11-04T08:37:36;98659.88;;;11.33;83.99
75699;BME280;64313;51.018;13.742;2022-11-04T08:40:03;98658.25;;;11.32;84.23
75699;BME280;64313;51.018;13.742;2022-11-04T08:42:29;98661.53;;;11.34;83.07
75699;BME280;64313;51.018;13.742;2022-11-04T08:44:54;98641.75;;;11.35;82.66
75699;BME280;64313;51.018;13.742;2022-11-04T08:47:20;98646.88;;;11.37;82.28
75699;BME280;64313;51.018;13.742;2022-11-04T08:49:45;98658.38;;;11.37;82.86
75699;BME280;64313;51.018;13.742;2022-11-04T08:52:11;98660.00;;;11.38;83.01
75699;BME280;64313;51.018;13.742;2022-11-04T08:54:36;98655.25;;;11.40;82.76
75699;BME280;64313;51.018;13.742;2022-11-04T08:57:02;98638.13;;;11.41;83.04
75699;BME280;64313;51.018;13.742;2022-11-04T08:59:27;98637.09;;;11.42;83.01
75699;BME280;64313;51.018;13.742;2022-11-04T09:01:53;98637.09;;;11.42;82.71
75699;BME280;64313;51.018;13.742;2022-11-04T09:04:18;98638.72;;;11.43;83.02
75699;BME280;64313;51.018;13.742;2022-11-04T09:06:45;98634.19;;;11.44;83.14
75699;BME280;64313;51.018;13.742;2022-11-04T09:09:16;98635.00;;;11.44;82.57
75699;BME280;64313;51.018;13.742;2022-11-04T09:11:44;98636.63;;;11.45;82.88
75699;BME280;64313;51.018;13.742;2022-11-04T09:14:10;98636.63;;;11.45;82.55
75699;BME280;64313;51.018;13.742;2022-11-04T09:16:37;98646.53;;;11.45;82.21
75699;BME280;64313;51.018;13.742;2022-11-04T09:19:03;98653.75;;;11.44;82.54
75699;BME280;64313;51.018;13.742;2022-11-04T09:21:28;98651.88;;;11.45;82.76
75699;BME280;64313;51.018;13.742;2022-11-04T09:23:54;98648.97;;;11.46;82.22
75699;BME280;64313;51.018;13.742;2022-11-04T09:26:20;98653.50;;;11.46;82.06
75699;BME280;64313;51.018;13.742;2022-11-04T09:28:46;98641.16;;;11.45;82.49
75699;BME280;64313;51.018;13.742;2022-11-04T09:31:15;98649.41;;;11.43;83.13
75699;BME280;64313;51.018;13.742;2022-11-04T09:33:41;98654.78;;;11.43;82.36
75699;BME280;64313;51.018;13.742;2022-11-04T09:36:08;98656.41;;;11.44;82.97
75699;BME280;64313;51.018;13.742;2022-11-04T09:38:36;98652.34;;;11.42;82.83
75699;BME280;64313;51.018;13.742;2022-11-04T09:43:57;98659.53;;;11.41;82.71
75699;BME280;64313;51.018;13.742;2022-11-04T09:46:29;98663.25;;;11.40;83.80
75699;BME280;64313;51.018;13.742;2022-11-04T09:48:57;98671.28;;;11.40;83.81
75699;BME280;64313;51.018;13.742;2022-11-04T09:51:26;98669.69;;;11.39;82.95
75699;BME280;64313;51.018;13.742;2022-11-04T09:53:57;98682.81;;;11.41;84.16
75699;BME280;64313;51.018;13.742;2022-11-04T09:56:30;98684.09;;;11.38;83.38
75699;BME280;64313;51.018;13.742;2022-11-04T09:58:57;98690.25;;;11.39;82.82
75699;BME280;64313;51.018;13.742;2022-11-04T10:01:39;98687.81;;;11.37;83.61
75699;BME280;64313;51.018;13.742;2022-11-04T10:04:15;98688.84;;;11.36;83.84
75699;BME280;64313;51.018;13.742;2022-11-04T10:15:27;98699.41;;;11.31;84.54
75699;BME280;64313;51.018;13.742;2022-11-04T10:18:12;98712.78;;;11.31;83.37
75699;BME280;64313;51.018;13.742;2022-11-04T10:23:41;98717.59;;;11.29;83.65
75699;BME280;64313;51.018;13.742;2022-11-04T10:26:17;98720.25;;;11.29;83.69
75699;BME280;64313;51.018;13.742;2022-11-04T10:28:59;98726.63;;;11.28;83.60
75699;BME280;64313;51.018;13.742;2022-11-04T10:31:39;98727.09;;;11.25;84.04
75699;BME280;64313;51.018;13.742;2022-11-04T10:36:35;98724.50;;;11.18;83.65
75699;BME280;64313;51.018;13.742;2022-11-04T10:39:03;98730.56;;;11.14;83.42
75699;BME280;64313;51.018;13.742;2022-11-04T10:41:38;98730.19;;;11.10;83.38
75699;BME280;64313;51.018;13.742;2022-11-04T10:44:14;98730.19;;;11.10;83.54
75699;BME280;64313;51.018;13.742;2022-11-04T10:46:54;98742.16;;;11.08;83.36
75699;BME280;64313;51.018;13.742;2022-11-04T10:49:46;98745.88;;;11.07;83.35
75699;BME280;64313;51.018;13.742;2022-11-04T10:52:14;98752.50;;;11.04;83.70
75699;BME280;64313;51.018;13.742;2022-11-04T10:54:43;98742.22;;;11.01;83.54
75699;BME280;64313;51.018;13.742;2022-11-04T10:57:11;98752.09;;;11.00;83.78
75699;BME280;64313;51.018;13.742;2022-11-04T10:59:51;98753.75;;;11.01;83.61
75699;BME280;64313;51.018;13.742;2022-11-04T11:02:16;98755.84;;;10.99;83.49
75699;BME280;64313;51.018;13.742;2022-11-04T11:04:42;98744.34;;;10.99;83.53
75699;BME280;64313;51.018;13.742;2022-11-04T11:07:14;98748.28;;;10.96;83.40
75699;BME280;64313;51.018;13.742;2022-11-04T11:14:38;98736.38;;;10.92;83.59
75699;BME280;64313;51.018;13.742;2022-11-04T11:24:52;98727.16;;;10.88;83.74
75699;BME280;64313;51.018;13.742;2022-11-04T11:27:18;98735.19;;;10.88;84.19
75699;BME280;64313;51.018;13.742;2022-11-04T11:29:47;98734.84;;;10.85;84.13
75699;BME280;64313;51.018;13.742;2022-11-04T11:32:31;98737.50;;;10.85;84.03
75699;BME280;64313;51.018;13.742;2022-11-04T11:34:57;98726.81;;;10.85;84.23
75699;BME280;64313;51.018;13.742;2022-11-04T11:37:27;98734.03;;;10.84;84.58
75699;BME280;64313;51.018;13.742;2022-11-04T11:39:56;98729.28;;;10.86;84.35
75699;BME280;64313;51.018;13.742;2022-11-04T11:42:22;98738.09;;;10.87;84.58
75699;BME280;64313;51.018;13.742;2022-11-04T11:44:52;98723.34;;;10.84;84.43
75699;BME280;64313;51.018;13.742;2022-11-04T11:47:33;98720.66;;;10.84;84.26
75699;BME280;64313;51.018;13.742;2022-11-04T11:52:41;98720.41;;;10.86;84.03
75699;BME280;64313;51.018;13.742;2022-11-04T12:00:16;98729.72;;;10.83;84.06
75699;BME280;64313;51.018;13.742;2022-11-04T12:08:51;98723.19;;;10.79;83.86
75699;BME280;64313;51.018;13.742;2022-11-04T12:17:03;98733.38;;;10.70;84.35
75699;BME280;64313;51.018;13.742;2022-11-04T12:30:19;98730.41;;;10.60;84.71
75699;BME280;64313;51.018;13.742;2022-11-04T12:35:35;98727.38;;;10.56;85.21
75699;BME280;64313;51.018;13.742;2022-11-04T12:46:20;98722.69;;;10.52;85.05
75699;BME280;64313;51.018;13.742;2022-11-04T12:49:12;98714.47;;;10.53;84.87
75699;BME280;64313;51.018;13.742;2022-11-04T12:57:20;98721.13;;;10.44;84.80
75699;BME280;64313;51.018;13.742;2022-11-04T13:05:17;98700.88;;;10.36;84.98
75699;BME280;64313;51.018;13.742;2022-11-04T13:07:59;98695.09;;;10.39;84.75
75699;BME280;64313;51.018;13.742;2022-11-04T13:13:55;98700.28;;;10.34;84.74
75699;BME280;64313;51.018;13.742;2022-11-04T13:16:21;98705.28;;;10.31;85.22
75699;BME280;64313;51.018;13.742;2022-11-04T13:18:48;98709.91;;;10.35;84.66
75699;BME280;64313;51.018;13.742;2022-11-04T13:21:22;98710.75;;;10.36;84.79
75699;BME280;64313;51.018;13.742;2022-11-04T13:23:57;98712.81;;;10.34;84.89
75699;BME280;64313;51.018;13.742;2022-11-04T13:26:25;98711.78;;;10.35;84.58
75699;BME280;64313;51.018;13.742;2022-11-04T13:28:57;98710.16;;;10.34;85.12
75699;BME280;64313;51.018;13.742;2022-11-04T13:34:30;98720.44;;;10.30;85.11
75699;BME280;64313;51.018;13.742;2022-11-04T13:37:09;98727.66;;;10.30;85.08
75699;BME280;64313;51.018;13.742;2022-11-04T13:39:45;98728.47;;;10.30;85.53
75699;BME280;64313;51.018;13.742;2022-11-04T13:45:14;98740.56;;;10.33;86.10
75699;BME280;64313;51.018;13.742;2022-11-04T13:47:49;98731.13;;;10.30;86.02
75699;BME280;64313;51.018;13.742;2022-11-04T13:50:35;98737.13;;;10.26;85.73
75699;BME280;64313;51.018;13.742;2022-11-04T13:53:03;98744.31;;;10.25;85.67
75699;BME280;64313;51.018;13.742;2022-11-04T13:55:34;98744.53;;;10.24;85.14
75699;BME280;64313;51.018;13.742;2022-11-04T13:58:05;98745.34;;;10.24;85.26
75699;BME280;64313;51.018;13.742;2022-11-04T14:00:32;98742.47;;;10.26;84.95
75699;BME280;64313;51.018;13.742;2022-11-04T14:02:59;98751.50;;;10.25;85.38
75699;BME280;64313;51.018;13.742;2022-11-04T14:05:45;98752.56;;;10.24;85.05
75699;BME280;64313;51.018;13.742;2022-11-04T14:08:13;98748.03;;;10.24;85.05
75699;BME280;64313;51.018;13.742;2022-11-04T14:22:04;98764.34;;;10.16;84.26
75699;BME280;64313;51.018;13.742;2022-11-04T14:24:31;98763.13;;;10.12;84.83
75699;BME280;64313;51.018;13.742;2022-11-04T14:26:57;98777.75;;;10.09;85.01
75699;BME280;64313;51.018;13.742;2022-11-04T14:29:26;98773.22;;;10.10;84.69
75699;BME280;64313;51.018;13.742;2022-11-04T14:31:57;98777.75;;;10.09;84.76
75699;BME280;64313;51.018;13.742;2022-11-04T14:34:32;98780.22;;;10.11;84.46
75699;BME280;64313;51.018;13.742;2022-11-04T14:37:20;98786.81;;;10.08;84.24
75699;BME280;64313;51.018;13.742;2022-11-04T14:39:54;98786.81;;;10.08;84.31
75699;BME280;64313;51.018;13.742;2022-11-04T14:42:43;98794.41;;;10.05;84.58
75699;BME280;64313;51.018;13.742;2022-11-04T14:45:17;98790.13;;;10.04;84.62
75699;BME280;64313;51.018;13.742;2022-11-04T14:47:51;98800.00;;;10.03;84.60
75699;BME280;64313;51.018;13.742;2022-11-04T14:50:26;98794.84;;;10.02;84.55
75699;BME280;64313;51.018;13.742;2022-11-04T14:53:02;98796.94;;;10.00;84.58
75699;BME280;64313;51.018;13.742;2022-11-04T14:55:30;98802.06;;;10.01;84.50
75699;BME280;64313;51.018;13.742;2022-11-04T15:01:02;98811.47;;;10.04;84.22
75699;BME280;64313;51.018;13.742;2022-11-04T15:03:38;98822.00;;;9.99;84.12
75699;BME280;64313;51.018;13.742;2022-11-04T15:06:22;98819.09;;;10.00;84.52
75699;BME280;64313;51.018;13.742;2022-11-04T15:08:52;98821.34;;;10.03;84.31
75699;BME280;64313;51.018;13.742;2022-11-04T15:11:26;98823.56;;;10.06;84.85
75699;BME280;64313;51.018;13.742;2022-11-04T15:14:29;98826.25;;;10.06;83.70